Time;durP1;ratioP1;P1;durP2;ratioP2;P2;SDS_P1;SDS_P2;PMS_P1;PMS_P2;Temp;Humidity;BMP_temperature;BMP_pressure;BME280_temperature;BME280_humidity;BME280_pressure;Samples;Min_cycle;Max_cycle;Signal;HPM_P1;HPM_P2
2022/09/17 00:01:25;;;;;;;11.53;5.30;;;10.30;1.00;;;;;;6310219;22;20534;-63
2022/09/17 00:03:54;;;;;;;11.30;6.27;;;10.20;1.00;;;;;;6311032;22;20452;-63
2022/09/17 00:06:22;;;;;;;11.40;7.83;;;10.20;1.00;;;;;;6310992;22;20769;-64
2022/09/17 00:08:50;;;;;;;12.67;7.23;;;10.10;1.00;;;;;;6310137;22;20942;-63
2022/09/17 00:11:20;;;;;;;11.57;7.37;;;10.10;87.90;;;;;;6309533;22;20444;-63
2022/09/17 00:13:51;;;;;;;12.93;6.10;;;10.10;99.90;;;;;;6311102;22;20388;-64
2022/09/17 00:16:24;;;;;;;9.23;5.30;;;10.10;99.90;;;;;;6311148;22;20842;-64
2022/09/17 00:18:52;;;;;;;16.23;7.60;;;10.00;99.90;;;;;;6309511;22;20397;-64
2022/09/17 00:21:20;;;;;;;13.73;6.03;;;10.10;99.90;;;;;;6309686;22;20420;-64
2022/09/17 00:23:47;;;;;;;12.03;6.23;;;10.10;99.90;;;;;;6310373;22;20479;-63
2022/09/17 00:26:15;;;;;;;11.37;6.27;;;10.20;99.90;;;;;;6310358;22;20398;-63
2022/09/17 00:28:47;;;;;;;12.93;5.83;;;10.10;99.90;;;;;;6309839;22;20417;-63
2022/09/17 00:31:19;;;;;;;8.57;5.47;;;10.10;99.90;;;;;;6310180;22;20460;-63
2022/09/17 00:33:46;;;;;;;12.57;6.00;;;10.10;99.90;;;;;;6310146;22;20854;-63
2022/09/17 00:36:16;;;;;;;12.80;6.00;;;10.10;99.90;;;;;;6315797;22;20900;-62
2022/09/17 00:38:43;;;;;;;9.53;5.00;;;10.00;99.90;;;;;;6318682;22;20415;-63
2022/09/17 00:41:10;;;;;;;9.50;5.80;;;10.00;99.90;;;;;;6309987;22;20418;-64
2022/09/17 00:43:41;;;;;;;10.33;5.97;;;10.00;99.90;;;;;;6309709;22;20933;-64
2022/09/17 00:46:21;;;;;;;13.63;7.00;;;10.00;99.90;;;;;;6310419;22;20519;-64
2022/09/17 00:48:49;;;;;;;14.83;6.67;;;10.00;99.90;;;;;;6310579;22;20385;-64
2022/09/17 00:51:21;;;;;;;13.03;6.40;;;10.00;99.90;;;;;;6309965;22;20419;-64
2022/09/17 00:53:49;;;;;;;9.83;5.93;;;10.00;99.90;;;;;;6309757;22;20414;-64
2022/09/17 00:56:22;;;;;;;9.70;7.60;;;10.00;99.90;;;;;;6310422;22;20419;-63
2022/09/17 00:58:51;;;;;;;16.20;8.93;;;10.00;99.90;;;;;;6310271;22;20816;-64
2022/09/17 01:01:19;;;;;;;13.90;7.47;;;10.00;99.90;;;;;;6309981;22;20485;-64
2022/09/17 01:03:49;;;;;;;9.23;7.20;;;10.00;99.90;;;;;;6309572;22;20521;-64
2022/09/17 01:06:27;;;;;;;15.07;9.10;;;10.00;99.90;;;;;;6310150;22;20416;-63
2022/09/17 01:09:07;;;;;;;13.20;9.03;;;10.10;99.90;;;;;;6310003;22;20439;-63
2022/09/17 01:11:54;;;;;;;15.17;9.23;;;10.10;99.90;;;;;;6310517;22;20419;-63
2022/09/17 01:14:38;;;;;;;11.43;8.47;;;10.10;99.90;;;;;;6309915;22;20412;-64
2022/09/17 01:17:15;;;;;;;17.03;8.87;;;10.00;99.90;;;;;;6309659;22;20478;-64
2022/09/17 01:20:18;;;;;;;13.87;9.60;;;10.00;99.90;;;;;;6308321;22;20816;-64
2022/09/17 01:22:56;;;;;;;11.20;9.83;;;10.00;99.90;;;;;;6306356;22;20479;-64
2022/09/17 01:25:25;;;;;;;12.40;9.30;;;10.00;99.90;;;;;;6307349;22;20413;-64
2022/09/17 01:28:36;;;;;;;12.97;10.27;;;10.00;99.90;;;;;;6309618;22;20808;-64
2022/09/17 01:31:23;;;;;;;22.57;11.93;;;10.00;99.90;;;;;;6253387;22;20424;-64
2022/09/17 01:34:00;;;;;;;12.60;10.60;;;10.10;99.90;;;;;;6308159;22;20404;-64
2022/09/17 01:36:41;;;;;;;16.50;13.10;;;10.00;99.90;;;;;;6309318;22;20416;-65
2022/09/17 01:39:18;;;;;;;20.70;15.20;;;10.00;99.90;;;;;;6307654;22;20440;-64
2022/09/17 01:41:55;;;;;;;16.77;14.37;;;10.10;99.90;;;;;;6308109;22;20449;-65
2022/09/17 01:44:29;;;;;;;37.97;16.93;;;10.00;99.90;;;;;;6307926;22;20450;-64
2022/09/17 01:47:04;;;;;;;23.80;16.23;;;10.00;99.90;;;;;;6308821;22;20416;-65
2022/09/17 01:49:36;;;;;;;21.77;17.43;;;10.10;99.90;;;;;;6309003;22;20415;-65
2022/09/17 01:52:05;;;;;;;23.30;17.70;;;10.10;99.90;;;;;;6309259;22;20721;-65
2022/09/17 01:54:37;;;;;;;23.33;19.33;;;10.10;99.90;;;;;;6309399;22;20750;-65
2022/09/17 01:57:10;;;;;;;23.43;21.00;;;10.20;99.90;;;;;;6309470;22;20392;-64
2022/09/17 01:59:45;;;;;;;30.37;23.27;;;10.10;99.90;;;;;;6309852;22;20395;-65
2022/09/17 02:02:21;;;;;;;24.03;21.03;;;10.20;99.90;;;;;;6310214;22;20435;-65
2022/09/17 02:04:57;;;;;;;35.53;23.43;;;10.20;99.90;;;;;;6309112;22;20904;-65
2022/09/17 02:07:26;;;;;;;27.30;21.90;;;10.30;99.90;;;;;;6309829;22;20495;-65
2022/09/17 02:09:59;;;;;;;31.47;22.47;;;10.30;99.90;;;;;;6310110;22;20442;-65
2022/09/17 02:12:32;;;;;;;30.97;24.47;;;10.20;99.90;;;;;;6310010;22;20515;-65
2022/09/17 02:15:02;;;;;;;36.40;24.10;;;10.20;99.90;;;;;;6308950;22;20422;-65
2022/09/17 02:17:37;;;;;;;29.23;22.87;;;10.20;99.90;;;;;;6309764;22;20489;-65
2022/09/17 02:20:05;;;;;;;38.13;25.00;;;10.10;99.90;;;;;;6310019;22;20416;-64
2022/09/17 02:22:43;;;;;;;37.10;24.53;;;10.10;99.90;;;;;;6310180;22;20447;-65
2022/09/17 02:25:15;;;;;;;30.27;23.40;;;10.10;99.90;;;;;;6309267;22;20424;-65
2022/09/17 02:27:52;;;;;;;28.67;22.43;;;10.10;99.90;;;;;;6309738;22;20420;-65
2022/09/17 02:30:20;;;;;;;32.27;21.63;;;10.10;99.90;;;;;;6309827;22;20422;-65
2022/09/17 02:32:50;;;;;;;29.13;21.07;;;10.10;99.90;;;;;;6309420;22;20514;-65
2022/09/17 02:35:18;;;;;;;32.77;23.23;;;10.20;99.90;;;;;;6309887;22;20416;-65
2022/09/17 02:37:45;;;;;;;32.17;20.97;;;10.20;99.90;;;;;;6309290;22;20416;-65
2022/09/17 02:40:15;;;;;;;27.67;21.07;;;10.20;99.90;;;;;;6310126;22;20417;-65
2022/09/17 02:43:01;;;;;;;28.50;21.40;;;10.20;99.90;;;;;;6309138;22;20391;-65
2022/09/17 02:45:39;;;;;;;28.63;23.63;;;10.10;99.90;;;;;;6309779;22;20497;-65
2022/09/17 02:48:24;;;;;;;31.17;22.73;;;10.20;99.90;;;;;;6311095;22;20397;-65
2022/09/17 02:51:05;;;;;;;25.93;21.53;;;10.20;99.90;;;;;;6311705;22;20417;-65
2022/09/17 02:53:40;;;;;;;33.17;21.27;;;10.10;99.90;;;;;;6311481;22;20397;-66
2022/09/17 02:56:19;;;;;;;32.47;21.33;;;10.20;99.90;;;;;;6311852;22;20849;-65
2022/09/17 02:58:56;;;;;;;28.93;20.23;;;10.20;99.90;;;;;;6311321;22;20416;-65
2022/09/17 03:01:28;;;;;;;31.03;21.70;;;10.20;99.90;;;;;;6312044;22;20826;-65
2022/09/17 03:03:59;;;;;;;26.47;20.87;;;10.20;99.90;;;;;;6312138;22;20447;-65
2022/09/17 03:06:27;;;;;;;27.20;20.20;;;10.20;99.90;;;;;;6312098;22;20392;-65
2022/09/17 03:08:56;;;;;;;31.67;22.63;;;10.20;99.90;;;;;;6310823;22;20755;-65
2022/09/17 03:11:23;;;;;;;26.90;21.40;;;10.10;99.90;;;;;;6311407;22;20423;-65
2022/09/17 03:13:50;;;;;;;27.13;21.53;;;10.10;99.90;;;;;;6310572;22;20850;-65
2022/09/17 03:16:18;;;;;;;30.90;21.43;;;10.10;99.90;;;;;;6310419;22;20392;-65
2022/09/17 03:18:45;;;;;;;28.93;21.57;;;10.10;99.90;;;;;;6310191;22;20420;-65
2022/09/17 03:21:14;;;;;;;25.50;18.90;;;10.10;99.90;;;;;;6311113;22;20387;-65
2022/09/17 03:23:43;;;;;;;30.53;21.63;;;10.10;99.90;;;;;;6311431;22;20444;-65
2022/09/17 03:26:11;;;;;;;26.90;18.97;;;10.10;99.90;;;;;;6311745;22;20390;-65
2022/09/17 03:28:38;;;;;;;28.80;19.57;;;10.20;99.90;;;;;;6311017;22;20422;-65
2022/09/17 03:31:08;;;;;;;26.50;18.43;;;10.10;99.90;;;;;;6309513;22;20420;-65
2022/09/17 03:33:35;;;;;;;32.40;17.57;;;10.10;99.90;;;;;;6309738;22;20818;-65
2022/09/17 03:36:02;;;;;;;23.53;18.23;;;10.00;99.90;;;;;;6309549;22;20416;-64
2022/09/17 03:38:33;;;;;;;23.30;19.17;;;10.00;99.90;;;;;;6310791;22;20415;-64
2022/09/17 03:41:01;;;;;;;25.90;19.07;;;10.00;99.90;;;;;;6310150;22;20733;-65
2022/09/17 03:43:29;;;;;;;26.20;19.53;;;9.90;99.90;;;;;;6310769;22;20505;-65
2022/09/17 03:45:56;;;;;;;22.03;17.13;;;10.00;99.90;;;;;;6310766;22;20497;-65
2022/09/17 03:48:23;;;;;;;25.60;17.63;;;9.90;99.90;;;;;;6311615;22;20390;-65
2022/09/17 03:50:52;;;;;;;26.33;16.70;;;9.90;99.90;;;;;;6310233;22;20395;-65
2022/09/17 03:53:22;;;;;;;18.67;14.63;;;9.90;99.90;;;;;;6310728;22;20387;-65
2022/09/17 03:55:54;;;;;;;27.37;15.53;;;9.90;99.90;;;;;;6311121;22;20391;-64
2022/09/17 03:58:22;;;;;;;21.87;13.40;;;10.00;99.90;;;;;;6311002;22;20420;-64
2022/09/17 04:00:53;;;;;;;23.53;13.90;;;9.90;99.90;;;;;;6310003;22;20483;-63
2022/09/17 04:03:21;;;;;;;19.20;11.70;;;9.90;99.90;;;;;;6311413;22;20505;-64
2022/09/17 04:05:54;;;;;;;15.10;10.73;;;9.90;99.90;;;;;;6311052;22;20478;-64
2022/09/17 04:08:22;;;;;;;18.23;10.03;;;9.90;99.90;;;;;;6310928;22;20817;-64
2022/09/17 04:10:50;;;;;;;19.27;11.07;;;9.90;99.90;;;;;;6310849;22;20395;-65
2022/09/17 04:13:19;;;;;;;17.07;11.03;;;9.90;99.90;;;;;;6310468;22;20433;-64
2022/09/17 04:15:47;;;;;;;14.50;8.93;;;10.00;99.90;;;;;;6309784;22;20494;-64
2022/09/17 04:18:15;;;;;;;11.40;8.60;;;9.90;99.90;;;;;;6310354;22;20393;-64
2022/09/17 04:20:43;;;;;;;15.00;7.80;;;9.90;99.90;;;;;;6310725;22;20863;-65
2022/09/17 04:23:11;;;;;;;10.27;6.80;;;10.00;99.90;;;;;;6310416;22;20904;-64
2022/09/17 04:25:41;;;;;;;8.60;5.70;;;9.90;70.40;;;;;;6310828;22;20423;-64
2022/09/17 04:28:08;;;;;;;9.33;5.57;;;9.90;1.00;;;;;;6311028;22;20390;-64
2022/09/17 04:30:37;;;;;;;17.07;7.00;;;9.80;1.00;;;;;;6311049;22;20394;-64
2022/09/17 04:33:05;;;;;;;15.77;5.23;;;9.80;1.00;;;;;;6310846;22;20416;-64
2022/09/17 04:35:32;;;;;;;18.03;7.10;;;9.80;1.00;;;;;;6310842;22;20456;-64
2022/09/17 04:37:59;;;;;;;11.60;5.00;;;9.80;1.00;;;;;;6309561;22;20391;-64
2022/09/17 04:40:27;;;;;;;10.80;5.17;;;9.80;1.00;;;;;;6310530;22;20413;-64
2022/09/17 04:42:55;;;;;;;11.80;4.17;;;9.80;1.00;;;;;;6309375;22;20415;-63
2022/09/17 04:45:23;;;;;;;9.80;3.70;;;9.80;1.00;;;;;;6310480;22;20927;-64
2022/09/17 04:47:52;;;;;;;11.20;4.10;;;9.80;99.90;;;;;;6310583;22;20493;-64
2022/09/17 04:50:19;;;;;;;12.70;3.80;;;9.80;1.00;;;;;;6310971;22;20713;-64
2022/09/17 04:52:49;;;;;;;7.27;3.87;;;9.80;1.00;;;;;;6309671;22;20688;-65
2022/09/17 04:55:16;;;;;;;10.57;4.60;;;9.80;1.00;;;;;;6309881;22;20386;-65
2022/09/17 04:57:47;;;;;;;10.93;4.33;;;9.80;1.00;;;;;;6310136;22;20419;-65
2022/09/17 05:00:16;;;;;;;8.33;4.40;;;9.80;1.00;;;;;;6310865;22;20391;-65
2022/09/17 05:02:45;;;;;;;13.37;4.77;;;9.80;1.00;;;;;;6310391;22;20443;-65
2022/09/17 05:05:14;;;;;;;12.47;4.50;;;9.80;1.00;;;;;;6309640;22;20422;-65
2022/09/17 05:07:42;;;;;;;15.97;6.03;;;9.90;1.00;;;;;;6309961;22;20489;-64
2022/09/17 05:10:12;;;;;;;7.90;3.60;;;9.80;1.00;;;;;;6310758;22;20440;-64
2022/09/17 05:12:39;;;;;;;9.70;4.43;;;9.90;52.10;;;;;;6309723;22;20445;-64
2022/09/17 05:15:07;;;;;;;15.17;4.70;;;9.90;97.20;;;;;;6309835;22;20422;-64
2022/09/17 05:17:37;;;;;;;14.40;4.67;;;9.90;99.90;;;;;;6309380;22;20854;-64
2022/09/17 05:20:05;;;;;;;9.00;3.50;;;9.90;99.90;;;;;;6310924;22;20429;-65
2022/09/17 05:22:33;;;;;;;10.50;4.67;;;9.90;96.60;;;;;;6310699;22;20394;-65
2022/09/17 05:25:02;;;;;;;17.83;5.57;;;10.00;97.20;;;;;;6309204;22;20423;-65
2022/09/17 05:27:30;;;;;;;14.13;4.50;;;9.90;1.00;;;;;;6308900;22;20832;-64
2022/09/17 05:29:57;;;;;;;8.50;4.10;;;10.00;1.00;;;;;;6310215;22;20431;-64
2022/09/17 05:32:24;;;;;;;8.60;4.13;;;10.00;1.00;;;;;;6310045;22;20391;-65
2022/09/17 05:34:55;;;;;;;10.67;4.80;;;10.00;1.00;;;;;;6309622;22;20423;-64
2022/09/17 05:37:24;;;;;;;7.50;4.00;;;10.00;1.00;;;;;;6310314;22;20767;-64
2022/09/17 05:39:52;;;;;;;11.40;3.90;;;10.00;1.00;;;;;;6309718;22;20446;-64
2022/09/17 05:42:20;;;;;;;14.30;4.30;;;10.10;1.00;;;;;;6308874;22;20413;-64
2022/09/17 05:44:47;;;;;;;11.20;3.90;;;10.10;99.90;;;;;;6309604;22;20744;-65
2022/09/17 05:47:14;;;;;;;9.73;3.27;;;10.00;99.90;;;;;;6309312;22;20494;-64
2022/09/17 05:49:43;;;;;;;7.63;3.60;;;10.00;1.00;;;;;;6309787;22;20864;-64
2022/09/17 05:52:12;;;;;;;13.30;4.70;;;10.00;99.90;;;;;;6309515;22;20858;-64
2022/09/17 05:54:39;;;;;;;14.17;4.57;;;10.00;1.00;;;;;;6309632;22;20391;-64
2022/09/17 05:57:08;;;;;;;13.07;5.03;;;10.10;1.00;;;;;;6309664;22;20507;-66
2022/09/17 05:59:36;;;;;;;8.97;5.90;;;10.10;99.90;;;;;;6309656;22;20427;-65
2022/09/17 06:02:11;;;;;;;10.90;4.77;;;10.20;99.90;;;;;;6309959;22;20448;-65
2022/09/17 06:04:39;;;;;;;9.80;5.90;;;10.20;1.00;;;;;;6309473;22;20904;-65
2022/09/17 06:07:07;;;;;;;9.83;5.60;;;10.30;1.00;;;;;;6308177;22;20412;-64
2022/09/17 06:09:35;;;;;;;11.90;6.00;;;10.40;1.00;;;;;;6309814;22;20893;-66
2022/09/17 06:12:03;;;;;;;12.30;6.90;;;10.50;1.00;;;;;;6309901;22;20436;-65
2022/09/17 06:14:34;;;;;;;14.73;7.07;;;10.50;1.00;;;;;;6309542;22;20394;-64
2022/09/17 06:17:02;;;;;;;13.07;7.20;;;10.60;1.00;;;;;;6309366;22;20878;-65
2022/09/17 06:19:29;;;;;;;13.80;6.37;;;10.60;1.00;;;;;;6308691;22;20824;-64
2022/09/17 06:21:56;;;;;;;8.80;5.00;;;10.60;1.00;;;;;;6309515;22;20748;-64
2022/09/17 06:24:23;;;;;;;13.10;4.97;;;10.70;1.00;;;;;;6309330;22;20425;-65
2022/09/17 06:26:54;;;;;;;10.60;5.43;;;10.70;99.90;;;;;;6309413;22;20891;-64
2022/09/17 06:29:21;;;;;;;13.33;5.90;;;10.70;99.90;;;;;;6309462;22;20481;-64
2022/09/17 06:31:50;;;;;;;7.10;4.33;;;10.90;99.90;;;;;;6309562;22;20688;-65
2022/09/17 06:34:18;;;;;;;13.93;6.00;;;10.90;99.90;;;;;;6309351;22;20696;-65
2022/09/17 06:36:45;;;;;;;9.07;4.17;;;11.00;99.90;;;;;;6308053;22;20497;-65
2022/09/17 06:39:12;;;;;;;8.33;4.67;;;11.10;12.40;;;;;;6308296;22;20730;-65
2022/09/17 06:41:42;;;;;;;14.07;4.37;;;11.10;1.00;;;;;;6308482;22;20466;-65
2022/09/17 06:44:09;;;;;;;10.47;5.03;;;11.10;1.00;;;;;;6307173;22;20416;-65
2022/09/17 06:46:36;;;;;;;10.70;4.73;;;11.00;1.00;;;;;;6307591;22;20412;-65
2022/09/17 06:49:07;;;;;;;13.30;3.80;;;10.90;1.00;;;;;;6306330;22;20416;-65
2022/09/17 06:51:35;;;;;;;15.83;5.00;;;10.90;1.00;;;;;;6308182;22;20415;-65
2022/09/17 06:54:02;;;;;;;11.07;4.90;;;10.80;1.00;;;;;;6307507;22;20477;-65
2022/09/17 06:56:29;;;;;;;11.60;4.97;;;10.80;1.00;;;;;;6308111;22;20767;-65
2022/09/17 06:58:58;;;;;;;11.10;5.43;;;10.70;1.00;;;;;;6307269;22;20416;-65
2022/09/17 07:01:25;;;;;;;8.30;4.60;;;10.70;94.40;;;;;;6308734;22;20390;-66
2022/09/17 07:03:53;;;;;;;7.10;3.77;;;10.60;1.00;;;;;;6309487;22;20416;-65
2022/09/17 07:06:22;;;;;;;8.33;4.70;;;10.60;46.00;;;;;;6309465;22;20474;-65
2022/09/17 07:08:49;;;;;;;9.47;4.33;;;10.70;99.90;;;;;;6309119;22;20788;-65
2022/09/17 07:11:16;;;;;;;14.10;4.00;;;10.60;33.00;;;;;;6308769;22;20413;-65
2022/09/17 07:13:46;;;;;;;8.13;4.30;;;10.50;99.90;;;;;;6307612;22;20431;-65
2022/09/17 07:16:16;;;;;;;9.20;4.40;;;10.60;99.90;;;;;;6307682;22;20408;-64
2022/09/17 07:18:44;;;;;;;11.53;4.17;;;10.60;99.90;;;;;;6306772;22;20416;-65
2022/09/17 07:21:11;;;;;;;7.53;4.00;;;10.50;99.90;;;;;;6304495;22;20485;-64
2022/09/17 07:23:43;;;;;;;10.97;5.00;;;10.60;99.90;;;;;;6307878;22;20527;-64
2022/09/17 07:26:15;;;;;;;11.00;5.30;;;10.70;99.90;;;;;;6308890;22;20444;-64
2022/09/17 07:28:45;;;;;;;7.40;4.40;;;10.70;99.90;;;;;;6308411;22;20391;-65
2022/09/17 07:31:13;;;;;;;12.23;5.13;;;10.90;28.90;;;;;;6306961;22;20391;-66
2022/09/17 07:33:41;;;;;;;8.50;5.30;;;11.20;99.90;;;;;;6306320;22;20397;-65
2022/09/17 07:36:16;;;;;;;10.13;5.57;;;11.30;1.00;;;;;;6308737;22;20415;-64
2022/09/17 07:38:45;;;;;;;8.40;5.70;;;11.20;1.00;;;;;;6308698;22;20443;-65
2022/09/17 07:41:14;;;;;;;9.30;5.07;;;11.60;1.00;;;;;;6309986;22;20420;-66
2022/09/17 07:43:43;;;;;;;12.77;7.23;;;11.80;1.00;;;;;;6309551;22;20838;-66
2022/09/17 07:46:15;;;;;;;10.83;5.20;;;12.40;1.00;;;;;;6310243;22;20514;-66
2022/09/17 07:48:42;;;;;;;7.80;4.20;;;13.00;1.00;;;;;;6310884;22;20450;-67
2022/09/17 07:51:14;;;;;;;8.50;4.40;;;13.30;1.00;;;;;;6310848;22;20426;-67
2022/09/17 07:53:41;;;;;;;12.80;4.67;;;13.20;99.90;;;;;;6310771;22;20395;-67
2022/09/17 07:56:09;;;;;;;7.27;4.73;;;13.80;99.90;;;;;;6310594;22;20412;-68
2022/09/17 07:58:38;;;;;;;9.77;5.10;;;14.30;99.90;;;;;;6311067;22;20387;-68
2022/09/17 08:01:07;;;;;;;7.40;4.60;;;14.20;99.90;;;;;;6310930;22;20519;-68
2022/09/17 08:03:38;;;;;;;9.50;4.60;;;13.50;99.90;;;;;;6310956;22;20493;-69
2022/09/17 08:06:07;;;;;;;10.50;4.20;;;13.30;99.90;;;;;;6311110;22;20415;-68
2022/09/17 08:08:38;;;;;;;12.07;3.77;;;13.40;99.90;;;;;;6311123;22;20395;-68
2022/09/17 08:11:07;;;;;;;11.83;4.23;;;13.30;99.90;;;;;;6309848;22;20420;-68
2022/09/17 08:13:38;;;;;;;8.53;4.30;;;13.40;99.90;;;;;;6309076;22;20422;-67
2022/09/17 08:16:09;;;;;;;10.23;3.83;;;13.50;99.90;;;;;;6309091;22;20391;-68
2022/09/17 08:18:36;;;;;;;6.90;3.53;;;13.70;99.90;;;;;;6310849;22;20853;-68
2022/09/17 08:21:06;;;;;;;7.23;3.27;;;14.10;99.90;;;;;;6310270;22;20416;-68
2022/09/17 08:23:35;;;;;;;8.60;3.70;;;14.20;99.90;;;;;;6310567;22;20820;-68
2022/09/17 08:26:04;;;;;;;10.30;4.70;;;14.40;99.90;;;;;;6310144;22;20467;-68
2022/09/17 08:28:32;;;;;;;5.97;3.10;;;14.80;99.90;;;;;;6311181;22;20776;-68
2022/09/17 08:31:03;;;;;;;8.53;4.17;;;14.80;99.90;;;;;;6310656;22;20422;-68
2022/09/17 08:33:33;;;;;;;7.13;3.27;;;14.80;99.90;;;;;;6310350;22;20401;-67
2022/09/17 08:36:01;;;;;;;5.00;2.40;;;15.00;99.90;;;;;;6311057;22;20827;-67
2022/09/17 08:38:31;;;;;;;7.17;2.63;;;14.90;99.90;;;;;;6310581;22;20425;-67
2022/09/17 08:41:11;;;;;;;5.93;2.83;;;14.70;99.90;;;;;;6309963;22;20460;-67
2022/09/17 08:43:43;;;;;;;6.73;3.30;;;14.20;99.90;;;;;;6310488;22;20531;-66
2022/09/17 08:46:12;;;;;;;5.00;2.87;;;14.20;99.90;;;;;;6310430;22;20419;-66
2022/09/17 08:48:42;;;;;;;8.17;2.53;;;14.10;99.90;;;;;;6310085;22;20691;-66
2022/09/17 08:51:30;;;;;;;4.90;2.33;;;14.70;99.90;;;;;;6309932;22;20416;-67
2022/09/17 08:54:08;;;;;;;8.40;2.20;;;15.60;99.90;;;;;;6310974;22;20395;-67
2022/09/17 08:56:37;;;;;;;4.90;2.90;;;15.80;99.90;;;;;;6310562;22;20408;-68
2022/09/17 08:59:15;;;;;;;5.87;3.33;;;15.50;99.90;;;;;;6309648;22;20924;-67
2022/09/17 09:01:53;;;;;;;5.50;2.23;;;15.70;99.90;;;;;;6309883;22;20842;-67
2022/09/17 09:04:36;;;;;;;5.27;2.63;;;15.10;99.90;;;;;;6310158;22;20442;-67
2022/09/17 09:07:10;;;;;;;7.73;3.20;;;14.60;99.90;;;;;;6308609;22;20511;-67
2022/09/17 09:09:41;;;;;;;7.07;2.90;;;14.60;99.90;;;;;;6310432;22;20434;-67
2022/09/17 09:12:25;;;;;;;7.53;2.50;;;15.10;99.90;;;;;;6309671;22;20420;-67
2022/09/17 09:15:01;;;;;;;6.70;3.47;;;15.10;99.90;;;;;;6310474;22;20810;-67
2022/09/17 09:17:36;;;;;;;6.43;3.47;;;15.50;99.90;;;;;;6310169;22;20451;-67
2022/09/17 09:20:05;;;;;;;6.60;3.00;;;15.20;99.90;;;;;;6310075;22;20489;-67
2022/09/17 09:22:45;;;;;;;7.30;3.97;;;15.00;99.90;;;;;;6309408;22;20450;-67
2022/09/17 09:25:24;;;;;;;5.03;2.93;;;15.20;99.90;;;;;;6309712;22;20487;-67
2022/09/17 09:28:05;;;;;;;6.50;3.37;;;15.80;99.90;;;;;;6309576;22;20394;-66
2022/09/17 09:30:46;;;;;;;5.77;2.80;;;16.80;99.90;;;;;;6310236;22;20427;-66
2022/09/17 09:33:20;;;;;;;6.00;2.70;;;16.50;99.90;;;;;;6310220;22;20889;-66
2022/09/17 09:35:48;;;;;;;6.57;2.37;;;16.80;99.90;;;;;;6309926;22;20420;-67
2022/09/17 09:38:25;;;;;;;4.77;2.60;;;16.60;99.90;;;;;;6308425;22;20408;-66
2022/09/17 09:40:57;;;;;;;4.20;2.50;;;16.50;99.90;;;;;;6309052;22;20867;-67
2022/09/17 09:43:29;;;;;;;3.03;1.97;;;16.70;99.90;;;;;;6310014;22;20420;-66
2022/09/17 09:46:24;;;;;;;4.83;2.13;;;15.60;99.90;;;;;;6309451;22;20444;-66
2022/09/17 09:49:04;;;;;;;3.63;2.50;;;16.20;99.90;;;;;;6308760;22;20862;-66
2022/09/17 09:51:40;;;;;;;6.47;2.80;;;17.00;99.90;;;;;;6308765;22;20840;-67
2022/09/17 09:54:20;;;;;;;2.50;2.20;;;16.60;99.90;;;;;;6308879;22;20422;-67
2022/09/17 09:56:55;;;;;;;4.53;1.93;;;16.20;99.90;;;;;;6307302;22;20416;-67
2022/09/17 09:59:23;;;;;;;5.17;2.20;;;14.80;99.90;;;;;;6308128;22;20422;-67
2022/09/17 10:01:50;;;;;;;5.87;2.57;;;14.40;99.90;;;;;;6308407;22;20717;-67
2022/09/17 10:04:21;;;;;;;4.33;2.30;;;14.50;99.90;;;;;;6309061;22;20482;-66
2022/09/17 10:06:52;;;;;;;4.43;1.90;;;14.50;99.90;;;;;;6308658;22;20543;-66
2022/09/17 10:09:21;;;;;;;5.90;2.80;;;14.20;99.90;;;;;;6309266;22;20467;-66
2022/09/17 10:12:15;;;;;;;3.93;2.13;;;13.90;99.90;;;;;;6308146;22;20520;-66
2022/09/17 10:14:43;;;;;;;6.43;2.50;;;14.20;99.90;;;;;;6309077;22;20416;-66
2022/09/17 10:17:30;;;;;;;2.83;2.23;;;15.10;99.90;;;;;;6309112;22;20408;-66
2022/09/17 10:20:26;;;;;;;2.37;1.93;;;15.60;99.90;;;;;;6309687;22;20716;-66
2022/09/17 10:22:55;;;;;;;4.70;1.80;;;16.20;99.90;;;;;;6221379;22;20410;-66
2022/09/17 10:25:33;;;;;;;5.03;2.50;;;15.60;99.90;;;;;;6308892;22;20426;-66
2022/09/17 10:28:20;;;;;;;6.20;3.20;;;15.40;99.90;;;;;;6309690;22;20397;-70
2022/09/17 10:30:57;;;;;;;6.90;2.60;;;14.40;99.90;;;;;;6308282;22;20534;-67
2022/09/17 10:33:27;;;;;;;6.80;2.40;;;13.40;99.90;;;;;;6309451;22;20907;-66
2022/09/17 10:36:03;;;;;;;5.53;3.00;;;12.60;99.90;;;;;;6309387;22;20442;-66
2022/09/17 10:38:36;;;;;;;6.10;2.40;;;12.30;99.90;;;;;;6308883;22;20444;-66
2022/09/17 10:41:13;;;;;;;6.70;2.20;;;12.00;99.90;;;;;;6308127;22;20424;-65
2022/09/17 10:43:43;;;;;;;8.37;2.27;;;12.10;99.90;;;;;;6309229;22;20421;-65
2022/09/17 10:46:15;;;;;;;3.43;2.33;;;12.30;99.90;;;;;;6309027;22;20444;-65
2022/09/17 10:48:46;;;;;;;4.10;2.50;;;12.40;99.90;;;;;;6307784;22;20395;-66
2022/09/17 10:51:25;;;;;;;4.60;3.00;;;12.30;99.90;;;;;;6309142;22;20417;-66
2022/09/17 10:54:32;;;;;;;6.53;3.30;;;12.30;99.90;;;;;;6309214;22;20400;-66
2022/09/17 10:57:01;;;;;;;8.70;2.40;;;12.30;99.90;;;;;;6309290;22;20416;-66
2022/09/17 10:59:55;;;;;;;5.60;2.30;;;12.30;99.90;;;;;;6307277;22;20419;-66
2022/09/17 11:03:23;;;;;;;6.30;2.30;;;12.30;99.90;;;;;;6309364;22;20444;-66
2022/09/17 11:06:24;;;;;;;3.93;2.03;;;12.70;99.90;;;;;;6183941;23;20457;-66
2022/09/17 11:09:07;;;;;;;4.63;2.60;;;13.90;99.90;;;;;;6288144;22;20519;-67
2022/09/17 11:11:48;;;;;;;6.17;2.60;;;14.90;99.90;;;;;;6311615;22;20695;-67
2022/09/17 11:14:32;;;;;;;3.63;1.90;;;15.70;99.90;;;;;;6311386;22;20422;-67
2022/09/17 11:17:14;;;;;;;3.73;2.00;;;16.40;99.90;;;;;;6310880;22;20416;-68
2022/09/17 11:19:52;;;;;;;5.90;2.87;;;16.10;99.90;;;;;;6310564;22;20402;-68
2022/09/17 11:22:30;;;;;;;6.70;2.47;;;15.60;99.90;;;;;;6311519;22;20718;-66
2022/09/17 11:25:31;;;;;;;3.10;1.67;;;15.00;99.90;;;;;;6310738;22;20394;-66
2022/09/17 11:28:09;;;;;;;3.13;2.03;;;13.80;99.90;;;;;;6227004;22;20434;-64
2022/09/17 11:30:49;;;;;;;4.87;2.27;;;13.60;99.90;;;;;;6311211;22;20891;-65
2022/09/17 11:33:39;;;;;;;5.23;2.20;;;13.50;99.90;;;;;;6310803;22;20420;-65
2022/09/17 11:36:13;;;;;;;5.40;2.03;;;13.70;99.90;;;;;;6310856;22;20842;-65
2022/09/17 11:38:46;;;;;;;8.60;1.80;;;14.10;99.90;;;;;;6310417;22;20410;-65
2022/09/17 11:41:19;;;;;;;4.17;2.70;;;14.10;99.90;;;;;;6310970;22;20833;-63
2022/09/17 11:43:51;;;;;;;3.97;2.20;;;14.00;99.90;;;;;;6311013;22;20416;-65
2022/09/17 11:46:25;;;;;;;2.50;2.30;;;13.10;99.90;;;;;;6309819;22;20498;-65
2022/09/17 11:48:58;;;;;;;2.97;2.07;;;12.00;99.90;;;;;;6310804;22;20397;-67
2022/09/17 11:51:30;;;;;;;4.80;2.57;;;11.40;99.90;;;;;;6310897;22;20420;-64
2022/09/17 11:54:03;;;;;;;3.50;1.80;;;10.90;99.90;;;;;;6311044;22;20686;-63
2022/09/17 11:56:38;;;;;;;4.83;2.27;;;11.00;1.00;;;;;;6310620;22;20412;-64
2022/09/17 11:59:14;;;;;;;4.33;2.60;;;10.80;1.00;;;;;;6310572;22;20420;-65
2022/09/17 12:01:48;;;;;;;3.10;1.90;;;10.70;1.00;;;;;;6309718;22;20717;-64
2022/09/17 12:04:40;;;;;;;4.47;2.00;;;10.80;1.00;;;;;;6311046;22;20435;-64
2022/09/17 12:07:27;;;;;;;3.60;2.27;;;11.20;1.00;;;;;;6309561;22;20459;-63
2022/09/17 12:10:00;;;;;;;2.43;2.23;;;11.80;1.00;;;;;;6311157;22;20416;-63
2022/09/17 12:12:32;;;;;;;3.30;2.27;;;12.40;1.00;;;;;;6310449;22;20497;-64
2022/09/17 12:15:06;;;;;;;3.23;1.77;;;13.20;1.00;;;;;;6309993;22;20416;-63
2022/09/17 12:17:44;;;;;;;2.67;1.70;;;13.70;1.00;;;;;;6310226;22;20905;-63
2022/09/17 12:20:23;;;;;;;3.90;2.27;;;13.40;99.90;;;;;;6310698;22;20416;-63
2022/09/17 12:22:53;;;;;;;3.00;2.07;;;13.30;99.90;;;;;;6308485;22;20430;-63
2022/09/17 12:25:27;;;;;;;3.07;1.90;;;13.30;99.90;;;;;;6308824;22;20760;-63
2022/09/17 12:28:09;;;;;;;3.17;1.70;;;13.30;99.90;;;;;;6309390;22;20449;-63
2022/09/17 12:30:43;;;;;;;3.70;2.10;;;13.20;99.90;;;;;;6310462;22;20862;-64
2022/09/17 12:33:22;;;;;;;3.03;1.70;;;13.60;99.90;;;;;;6309973;22;20774;-64
2022/09/17 12:36:27;;;;;;;2.97;1.70;;;14.40;99.90;;;;;;6308921;22;20387;-64
2022/09/17 12:39:21;;;;;;;5.00;3.10;;;15.10;99.90;;;;;;6270626;22;20426;-65
2022/09/17 12:42:01;;;;;;;2.80;1.70;;;15.10;99.90;;;;;;6308517;22;20416;-64
2022/09/17 12:45:03;;;;;;;4.23;2.63;;;14.90;99.90;;;;;;6309384;22;20511;-64
2022/09/17 12:48:15;;;;;;;2.10;1.77;;;14.90;99.90;;;;;;6309096;22;20447;-64
2022/09/17 12:50:55;;;;;;;2.57;1.80;;;14.20;99.90;;;;;;6309114;22;20416;-63
2022/09/17 12:53:31;;;;;;;2.63;1.70;;;13.60;99.90;;;;;;6310093;22;20489;-63
2022/09/17 12:56:17;;;;;;;4.93;2.47;;;13.60;99.90;;;;;;6309688;22;20431;-57
2022/09/17 12:59:08;;;;;;;7.60;3.80;;;13.30;99.90;;;;;;6309472;22;20420;-63
2022/09/17 13:01:45;;;;;;;2.23;1.47;;;13.00;99.90;;;;;;6301426;22;20532;-66
2022/09/17 13:04:31;;;;;;;2.80;1.70;;;12.70;99.90;;;;;;6310348;22;20452;-63
2022/09/17 13:07:33;;;;;;;3.60;1.67;;;12.90;99.90;;;;;;6308378;22;20448;-63
2022/09/17 13:10:11;;;;;;;3.10;1.93;;;13.90;99.90;;;;;;6304042;22;20753;-63
2022/09/17 13:12:48;;;;;;;3.27;1.70;;;14.60;99.90;;;;;;6309515;22;20412;-63
2022/09/17 13:15:46;;;;;;;3.70;1.90;;;15.30;99.90;;;;;;6309372;22;20445;-63